createdAt,value
2023-09-27T00:02:37.007Z,4.90
2023-09-27T00:05:08.220Z,5.38
2023-09-27T00:07:35.996Z,5.40
2023-09-27T00:10:03.720Z,4.93
2023-09-27T00:12:31.281Z,4.55
2023-09-27T00:14:58.867Z,4.60
2023-09-27T00:17:26.381Z,4.50
2023-09-27T00:19:55.227Z,5.25
2023-09-27T00:22:22.800Z,4.82
2023-09-27T00:24:50.588Z,4.57
2023-09-27T00:27:18.098Z,5.65
2023-09-27T00:29:46.702Z,4.88
2023-09-27T00:32:14.508Z,5.22
2023-09-27T00:37:10.731Z,4.65
2023-09-27T00:39:40.158Z,4.80
2023-09-27T00:42:07.646Z,5.50
2023-09-27T00:44:35.913Z,5.18
2023-09-27T00:47:03.480Z,5.78
2023-09-27T00:49:31.047Z,5.85
2023-09-27T00:51:58.633Z,6.75
2023-09-27T00:54:27.560Z,6.32
2023-09-27T00:56:55.081Z,6.15
2023-09-27T00:59:22.961Z,6.68
2023-09-27T01:04:19.073Z,5.88
2023-09-27T01:06:46.547Z,6.57
2023-09-27T01:09:14.073Z,5.85
2023-09-27T01:11:43.085Z,5.63
2023-09-27T01:14:10.648Z,6.07
2023-09-27T01:16:38.481Z,6.25
2023-09-27T01:21:33.573Z,6.13
2023-09-27T01:24:02.558Z,5.55
2023-09-27T01:26:30.707Z,6.25
2023-09-27T01:28:58.335Z,6.10
2023-09-27T01:31:25.866Z,6.35
2023-09-27T01:33:53.466Z,5.30
2023-09-27T01:36:21.332Z,5.50
2023-09-27T01:38:48.763Z,5.10
2023-09-27T01:41:19.086Z,5.32
2023-09-27T01:43:46.685Z,5.82
2023-09-27T01:46:15.078Z,5.97
2023-09-27T01:48:42.740Z,6.07
2023-09-27T01:51:10.211Z,5.95
2023-09-27T01:53:37.715Z,5.85
2023-09-27T01:56:05.431Z,6.25
2023-09-27T01:58:34.274Z,5.60
2023-09-27T02:01:01.824Z,6.13
2023-09-27T02:03:29.461Z,6.07
2023-09-27T02:05:59.074Z,5.63
2023-09-27T02:08:26.676Z,5.35
2023-09-27T02:10:54.148Z,6.13
2023-09-27T02:13:21.779Z,5.57
2023-09-27T02:15:50.589Z,5.13
2023-09-27T02:18:18.222Z,6.65
2023-09-27T02:20:46.709Z,6.20
2023-09-27T02:23:14.265Z,5.72
2023-09-27T02:25:41.887Z,5.85
2023-09-27T02:28:09.929Z,5.90
2023-09-27T02:30:37.418Z,6.80
2023-09-27T02:33:06.485Z,7.05
2023-09-27T02:35:34.023Z,7.03
2023-09-27T02:38:01.511Z,6.38
2023-09-27T02:40:29.026Z,6.35
2023-09-27T02:42:56.707Z,7.05
2023-09-27T02:45:24.149Z,5.60
2023-09-27T02:47:51.683Z,5.63
2023-09-27T02:50:20.583Z,6.05
2023-09-27T02:52:48.294Z,5.57
2023-09-27T02:55:16.144Z,5.85
2023-09-27T02:57:49.758Z,6.43
2023-09-27T03:00:17.650Z,7.65
2023-09-27T03:07:42.122Z,6.90
2023-09-27T03:10:12.042Z,6.55
2023-09-27T03:12:41.215Z,7.63
2023-09-27T03:15:12.585Z,6.55
2023-09-27T03:17:41.872Z,7.10
2023-09-27T03:20:17.144Z,7.65
2023-09-27T03:22:47.352Z,7.30
2023-09-27T03:25:15.457Z,8.07
2023-09-27T03:27:43.006Z,8.13
2023-09-27T03:30:11.562Z,6.82
2023-09-27T03:32:40.875Z,7.00
2023-09-27T03:35:09.999Z,8.05
2023-09-27T03:37:37.794Z,7.28
2023-09-27T03:40:08.965Z,8.10
2023-09-27T03:42:36.927Z,7.13
2023-09-27T03:47:31.867Z,7.63
2023-09-27T03:52:27.301Z,6.40
2023-09-27T03:54:54.875Z,7.28
2023-09-27T03:57:23.701Z,7.55
2023-09-27T03:59:51.154Z,8.00
2023-09-27T04:02:18.865Z,7.07
2023-09-27T04:04:46.472Z,7.47
2023-09-27T04:07:14.006Z,8.05
2023-09-27T04:09:41.555Z,7.60
2023-09-27T04:12:08.999Z,8.20
2023-09-27T04:14:37.842Z,8.25
2023-09-27T04:17:05.589Z,7.32
2023-09-27T04:19:34.040Z,8.15
2023-09-27T04:22:02.036Z,7.72
2023-09-27T04:24:29.517Z,8.60
2023-09-27T04:26:56.988Z,8.00
2023-09-27T04:29:24.552Z,8.68
2023-09-27T04:31:53.459Z,7.60
2023-09-27T04:34:20.906Z,9.00
2023-09-27T04:36:49.113Z,8.13
2023-09-27T04:39:18.491Z,8.73
2023-09-27T04:41:47.470Z,7.85
2023-09-27T04:44:15.202Z,8.05
2023-09-27T04:46:42.832Z,8.30
2023-09-27T04:49:11.658Z,7.88
2023-09-27T04:51:39.514Z,8.52
2023-09-27T04:54:08.475Z,8.10
2023-09-27T04:56:36.014Z,7.93
2023-09-27T04:59:04.995Z,7.82
2023-09-27T05:01:32.724Z,8.77
2023-09-27T05:04:00.246Z,9.57
2023-09-27T05:06:29.552Z,8.38
2023-09-27T05:08:57.045Z,9.57
2023-09-27T05:11:24.531Z,8.48
2023-09-27T05:13:52.005Z,8.30
2023-09-27T05:16:20.979Z,8.23
2023-09-27T05:18:48.476Z,9.45
2023-09-27T05:21:15.936Z,8.68
2023-09-27T05:23:45.029Z,10.00
2023-09-27T05:26:13.081Z,8.80
2023-09-27T05:28:40.651Z,10.15
2023-09-27T05:31:08.163Z,9.52
2023-09-27T05:33:35.702Z,8.38
2023-09-27T05:36:03.824Z,8.65
2023-09-27T05:38:31.458Z,9.80
2023-09-27T05:41:00.317Z,9.43
2023-09-27T05:43:27.937Z,9.50
2023-09-27T05:45:55.410Z,9.55
2023-09-27T05:48:22.991Z,8.65
2023-09-27T05:50:51.180Z,10.27
2023-09-27T05:53:18.728Z,9.15
2023-09-27T05:55:47.377Z,9.52
2023-09-27T05:58:16.272Z,8.63
2023-09-27T06:00:47.745Z,9.38
2023-09-27T06:03:15.592Z,8.27
2023-09-27T06:05:43.196Z,9.32
2023-09-27T06:08:10.730Z,7.60
2023-09-27T06:10:38.180Z,7.63
2023-09-27T06:13:06.247Z,8.68
2023-09-27T06:15:35.508Z,8.63
2023-09-27T06:18:04.146Z,8.05
2023-09-27T06:20:32.144Z,9.30
2023-09-27T06:23:04.480Z,8.50
2023-09-27T06:25:33.503Z,8.60
2023-09-27T06:28:01.659Z,8.68
2023-09-27T06:30:29.446Z,8.75
2023-09-27T06:32:58.645Z,8.30
2023-09-27T06:35:26.375Z,7.85
2023-09-27T06:37:54.001Z,8.20
2023-09-27T06:40:23.356Z,8.57
2023-09-27T06:42:50.862Z,9.60
2023-09-27T06:45:18.491Z,8.15
2023-09-27T06:47:46.963Z,8.23
2023-09-27T06:50:16.485Z,8.35
2023-09-27T06:52:43.131Z,9.10
2023-09-27T06:55:12.948Z,8.82
2023-09-27T06:57:41.266Z,8.00
2023-09-27T07:00:14.255Z,9.90
2023-09-27T07:02:43.902Z,9.60
2023-09-27T07:05:12.680Z,8.25
2023-09-27T07:07:41.634Z,9.25
2023-09-27T07:10:09.749Z,7.28
2023-09-27T07:12:37.465Z,8.20
2023-09-27T07:15:09.277Z,7.25
2023-09-27T07:17:37.121Z,8.57
2023-09-27T07:20:13.408Z,8.07
2023-09-27T07:22:43.650Z,8.13
2023-09-27T07:25:13.612Z,7.75
2023-09-27T07:27:41.856Z,7.20
2023-09-27T07:30:11.644Z,8.15
2023-09-27T07:32:40.398Z,7.40
2023-09-27T07:35:10.294Z,7.70
2023-09-27T07:37:38.276Z,6.57
2023-09-27T07:40:10.917Z,7.85
2023-09-27T07:42:38.523Z,7.22
2023-09-27T07:45:06.656Z,7.47
2023-09-27T07:47:35.468Z,7.43
2023-09-27T07:50:03.142Z,7.38
2023-09-27T07:52:30.665Z,6.97
2023-09-27T07:54:59.495Z,6.50
2023-09-27T07:57:28.318Z,6.90
2023-09-27T07:59:56.083Z,6.40
2023-09-27T08:02:24.070Z,6.68
2023-09-27T08:04:51.570Z,6.40
2023-09-27T08:07:19.897Z,7.15
2023-09-27T08:09:47.437Z,7.70
2023-09-27T08:12:15.077Z,7.25
2023-09-27T08:14:43.912Z,8.00
2023-09-27T08:17:11.493Z,9.10
2023-09-27T08:19:39.646Z,9.43
2023-09-27T08:22:07.136Z,8.23
2023-09-27T08:24:34.596Z,8.25
2023-09-27T08:27:02.879Z,9.00
2023-09-27T08:29:30.380Z,8.75
2023-09-27T08:31:59.500Z,8.23
2023-09-27T08:34:27.122Z,8.95
2023-09-27T08:36:54.575Z,7.88
2023-09-27T08:39:22.112Z,8.18
2023-09-27T08:41:49.700Z,7.78
2023-09-27T08:44:17.216Z,7.80
2023-09-27T08:46:45.886Z,7.00
2023-09-27T08:49:16.175Z,7.43
2023-09-27T08:51:44.099Z,7.03
2023-09-27T08:54:13.233Z,7.32
2023-09-27T08:56:41.172Z,7.25
2023-09-27T08:59:08.959Z,7.47
2023-09-27T09:04:04.345Z,7.15
2023-09-27T09:06:33.690Z,7.07
2023-09-27T09:09:05.927Z,6.90
2023-09-27T09:11:33.632Z,6.88
2023-09-27T09:14:05.502Z,7.32
2023-09-27T09:16:40.903Z,6.05
2023-09-27T09:19:32.780Z,6.72
2023-09-27T09:22:10.796Z,6.53
2023-09-27T09:24:38.524Z,5.90
2023-09-27T09:29:45.863Z,6.75
2023-09-27T09:32:14.156Z,6.32
2023-09-27T09:34:41.120Z,5.50
2023-09-27T09:37:17.882Z,5.50
2023-09-27T09:39:45.535Z,6.17
2023-09-27T09:42:13.179Z,5.55
2023-09-27T09:47:12.293Z,4.85
2023-09-27T09:49:40.256Z,4.65
2023-09-27T09:52:07.717Z,4.82
2023-09-27T09:54:39.907Z,5.93
2023-09-27T09:57:15.987Z,3.80
2023-09-27T09:59:50.889Z,4.22
2023-09-27T10:02:20.934Z,3.60
2023-09-27T10:04:48.923Z,3.65
2023-09-27T10:07:18.356Z,3.90
2023-09-27T10:09:48.178Z,4.97
2023-09-27T10:12:15.926Z,4.10
2023-09-27T10:22:15.159Z,4.10
2023-09-27T10:24:43.702Z,3.53
2023-09-27T10:27:12.578Z,3.88
2023-09-27T10:29:54.939Z,3.45
2023-09-27T10:32:21.678Z,3.28
2023-09-27T10:34:49.930Z,3.85
2023-09-27T10:37:19.746Z,4.63
2023-09-27T10:40:08.302Z,3.80
2023-09-27T10:42:43.456Z,4.00
2023-09-27T10:45:11.333Z,3.67
2023-09-27T10:47:39.043Z,4.30
2023-09-27T10:50:07.037Z,3.92
2023-09-27T10:52:34.591Z,4.47
2023-09-27T10:55:09.870Z,3.90
2023-09-27T10:57:37.426Z,4.68
2023-09-27T11:00:10.637Z,3.92
2023-09-27T11:02:39.000Z,4.68
2023-09-27T11:05:07.732Z,3.72
2023-09-27T11:07:48.627Z,4.82
2023-09-27T11:10:20.412Z,3.95
2023-09-27T11:12:48.053Z,5.10
2023-09-27T11:15:25.071Z,4.50
2023-09-27T11:17:56.154Z,4.88
2023-09-27T11:20:25.799Z,4.43
2023-09-27T11:22:57.941Z,5.10
2023-09-27T11:25:37.421Z,4.70
2023-09-27T11:28:06.048Z,4.57
2023-09-27T11:30:36.231Z,5.35
2023-09-27T11:33:07.069Z,5.50
2023-09-27T11:35:35.127Z,4.53
2023-09-27T11:38:06.526Z,5.00
2023-09-27T11:40:35.140Z,4.35
2023-09-27T11:43:03.921Z,5.80
2023-09-27T11:45:42.821Z,5.07
2023-09-27T11:48:11.864Z,5.80
2023-09-27T11:50:39.596Z,5.95
2023-09-27T11:53:07.088Z,5.68
2023-09-27T11:58:03.408Z,5.35
2023-09-27T12:00:30.990Z,5.88
2023-09-27T12:02:59.085Z,6.22
2023-09-27T12:05:29.138Z,5.20
2023-09-27T12:07:57.106Z,5.53
2023-09-27T12:10:24.683Z,4.60
2023-09-27T12:12:51.383Z,4.68
2023-09-27T12:15:18.981Z,4.30
2023-09-27T12:20:26.614Z,3.95
2023-09-27T12:22:56.378Z,3.72
2023-09-27T12:25:23.802Z,4.13
2023-09-27T12:30:19.380Z,3.58
2023-09-27T12:32:46.845Z,3.38
2023-09-27T12:35:14.444Z,4.07
2023-09-27T12:37:41.931Z,4.13
2023-09-27T12:40:11.523Z,4.10
2023-09-27T12:42:38.993Z,4.75
2023-09-27T12:45:08.060Z,4.93
2023-09-27T12:47:35.721Z,4.53
2023-09-27T12:50:04.437Z,4.40
2023-09-27T12:52:32.516Z,3.67
2023-09-27T12:55:00.084Z,3.20
2023-09-27T12:57:29.013Z,2.90
2023-09-27T12:59:57.022Z,3.10
2023-09-27T13:02:24.767Z,3.58
2023-09-27T13:04:52.622Z,3.00
2023-09-27T13:07:20.168Z,2.80
2023-09-27T13:09:47.645Z,3.13
2023-09-27T13:12:15.541Z,2.92
2023-09-27T13:14:44.393Z,2.75
2023-09-27T13:17:12.619Z,2.70
2023-09-27T13:19:40.155Z,2.63
2023-09-27T13:22:07.886Z,2.72
2023-09-27T13:24:35.401Z,2.78
2023-09-27T13:27:02.886Z,2.70
2023-09-27T13:29:30.504Z,2.75
2023-09-27T13:31:59.412Z,2.65
2023-09-27T13:34:26.828Z,3.67
2023-09-27T13:39:26.953Z,2.63
2023-09-27T13:41:54.539Z,2.88
2023-09-27T13:44:22.089Z,2.67
2023-09-27T13:46:50.149Z,2.88
2023-09-27T13:49:19.328Z,2.97
2023-09-27T13:51:46.816Z,2.67
2023-09-27T13:54:15.516Z,3.35
2023-09-27T13:56:43.043Z,2.50
2023-09-27T13:59:10.659Z,2.83
2023-09-27T14:01:38.645Z,2.58
2023-09-27T14:04:06.537Z,3.05
2023-09-27T14:06:35.371Z,2.90
2023-09-27T14:09:03.175Z,2.67
2023-09-27T14:11:30.705Z,2.67
2023-09-27T14:13:58.533Z,2.50
2023-09-27T14:16:26.418Z,3.20
2023-09-27T14:18:54.772Z,2.90
2023-09-27T14:21:22.706Z,2.70
2023-09-27T14:23:51.585Z,2.92
2023-09-27T14:26:21.184Z,3.50
2023-09-27T14:28:48.908Z,2.80
2023-09-27T14:31:17.467Z,2.45
2023-09-27T14:33:45.163Z,2.85
2023-09-27T14:36:13.256Z,2.50
2023-09-27T14:38:40.707Z,2.70
2023-09-27T14:43:38.036Z,2.97
2023-09-27T14:46:09.981Z,2.38
2023-09-27T14:48:38.317Z,2.60
2023-09-27T14:51:05.907Z,2.58
2023-09-27T14:53:33.390Z,2.88
2023-09-27T14:58:28.158Z,2.70
2023-09-27T15:03:25.093Z,2.80
2023-09-27T15:05:52.736Z,2.63
2023-09-27T15:08:20.245Z,2.58
2023-09-27T15:13:15.133Z,2.80
2023-09-27T15:18:10.336Z,2.88
2023-09-27T15:28:01.528Z,3.17
2023-09-27T15:30:29.150Z,2.78
2023-09-27T15:42:50.700Z,2.40
2023-09-27T15:45:21.433Z,2.63
2023-09-27T15:47:49.074Z,2.30
2023-09-27T15:50:16.914Z,2.30
2023-09-27T15:52:44.411Z,2.58
2023-09-27T15:55:12.334Z,2.40
2023-09-27T15:57:40.026Z,2.50
2023-09-27T16:00:12.320Z,2.47
2023-09-27T16:02:41.548Z,2.22
2023-09-27T16:05:12.749Z,2.58
2023-09-27T16:07:40.620Z,2.40
2023-09-27T16:10:09.792Z,2.80
2023-09-27T16:12:37.246Z,3.30
2023-09-27T16:15:06.680Z,2.58
2023-09-27T16:17:36.765Z,3.10
2023-09-27T16:20:08.225Z,2.80
2023-09-27T16:22:36.001Z,2.67
2023-09-27T16:25:04.819Z,3.45
2023-09-27T16:27:32.344Z,3.28
2023-09-27T16:30:00.046Z,3.22
2023-09-27T16:32:28.191Z,3.20
2023-09-27T16:34:55.864Z,3.33
2023-09-27T16:37:24.764Z,3.88
2023-09-27T16:39:52.330Z,2.80
2023-09-27T16:42:19.882Z,2.85
2023-09-27T16:44:47.349Z,3.20
2023-09-27T16:47:14.815Z,3.40
2023-09-27T16:49:42.327Z,3.47
2023-09-27T16:52:09.819Z,3.25
2023-09-27T16:54:39.084Z,3.33
2023-09-27T16:57:06.542Z,3.85
2023-09-27T16:59:35.046Z,3.70
2023-09-27T17:02:02.750Z,3.60
2023-09-27T17:04:30.234Z,3.38
2023-09-27T17:06:57.709Z,3.40
2023-09-27T17:09:25.658Z,3.53
2023-09-27T17:11:54.619Z,4.10
2023-09-27T17:14:23.209Z,3.80
2023-09-27T17:16:50.835Z,3.53
2023-09-27T17:19:23.655Z,3.75
2023-09-27T17:21:51.191Z,3.60
2023-09-27T17:24:18.662Z,3.53
2023-09-27T17:26:46.938Z,3.42
2023-09-27T17:29:16.139Z,3.78
2023-09-27T17:31:44.736Z,4.25
2023-09-27T17:34:12.457Z,4.55
2023-09-27T17:36:40.117Z,4.38
2023-09-27T17:39:07.760Z,3.90
2023-09-27T17:41:35.420Z,4.47
2023-09-27T17:44:03.133Z,4.60
2023-09-27T17:46:32.207Z,4.32
2023-09-27T17:49:00.610Z,4.95
2023-09-27T17:51:28.056Z,4.78
2023-09-27T17:53:55.742Z,4.85
2023-09-27T17:58:52.297Z,4.65
2023-09-27T18:01:20.785Z,5.25
2023-09-27T18:03:49.704Z,5.28
2023-09-27T18:06:17.182Z,5.38
2023-09-27T18:08:44.645Z,4.68
2023-09-27T18:11:12.687Z,6.20
2023-09-27T18:13:40.361Z,5.30
2023-09-27T18:16:16.026Z,6.00
2023-09-27T18:18:44.161Z,5.72
2023-09-27T18:21:14.859Z,6.20
2023-09-27T18:23:43.998Z,5.90
2023-09-27T18:26:12.142Z,6.00
2023-09-27T18:28:39.984Z,5.63
2023-09-27T18:31:07.952Z,5.47
2023-09-27T18:33:35.394Z,5.60
2023-09-27T18:36:03.766Z,5.57
2023-09-27T18:38:32.606Z,6.30
2023-09-27T18:41:00.182Z,6.50
2023-09-27T18:43:27.792Z,6.15
2023-09-27T18:45:55.340Z,6.35
2023-09-27T18:48:22.993Z,6.35
2023-09-27T18:50:51.027Z,6.10
2023-09-27T18:55:47.164Z,6.45
2023-09-27T18:58:15.495Z,7.18
2023-09-27T19:00:43.365Z,6.95
2023-09-27T19:05:38.447Z,6.60
2023-09-27T19:08:05.956Z,7.03
2023-09-27T19:10:33.692Z,7.30
2023-09-27T19:13:02.563Z,8.13
2023-09-27T19:15:30.153Z,7.10
2023-09-27T19:17:58.598Z,7.13
2023-09-27T19:20:26.538Z,7.75
2023-09-27T19:25:22.309Z,6.80
2023-09-27T19:27:49.883Z,7.63
2023-09-27T19:30:18.719Z,7.90
2023-09-27T19:32:46.568Z,7.97
2023-09-27T19:37:42.971Z,8.82
2023-09-27T19:40:13.137Z,8.68
2023-09-27T19:42:42.024Z,9.02
2023-09-27T19:45:11.003Z,8.38
2023-09-27T19:47:39.795Z,8.45
2023-09-27T19:50:09.760Z,8.35
2023-09-27T19:52:38.770Z,7.78
2023-09-27T19:55:07.356Z,7.95
2023-09-27T19:57:34.828Z,8.52
2023-09-27T20:00:04.536Z,8.50
2023-09-27T20:02:36.536Z,9.00
2023-09-27T20:05:06.386Z,8.30
2023-09-27T20:07:33.906Z,9.13
2023-09-27T20:10:01.566Z,9.05
2023-09-27T20:12:28.996Z,8.98
2023-09-27T20:14:56.463Z,8.23
2023-09-27T20:17:23.963Z,9.02
2023-09-27T20:19:51.457Z,8.85
2023-09-27T20:22:20.941Z,8.85
2023-09-27T20:24:48.416Z,8.45
2023-09-27T20:27:16.172Z,8.30
2023-09-27T20:29:43.637Z,8.63
2023-09-27T20:32:11.094Z,8.35
2023-09-27T20:34:38.569Z,7.85
2023-09-27T20:37:06.063Z,8.98
2023-09-27T20:39:34.944Z,9.43
2023-09-27T20:42:02.963Z,8.32
2023-09-27T20:44:30.816Z,7.90
2023-09-27T20:49:25.674Z,7.70
2023-09-27T20:51:53.138Z,7.57
2023-09-27T20:54:20.587Z,8.35
2023-09-27T20:56:49.355Z,7.25
2023-09-27T20:59:16.876Z,7.82
2023-09-27T21:01:45.050Z,7.22
2023-09-27T21:04:15.636Z,7.88
2023-09-27T21:06:43.684Z,7.82
2023-09-27T21:09:11.488Z,7.55
2023-09-27T21:11:39.018Z,7.55
2023-09-27T21:14:07.878Z,7.20
2023-09-27T21:16:35.540Z,7.13
2023-09-27T21:19:03.062Z,6.97
2023-09-27T21:21:31.805Z,6.88
2023-09-27T21:23:59.282Z,7.35
2023-09-27T21:26:27.837Z,7.13
2023-09-27T21:28:55.443Z,7.60
2023-09-27T21:31:24.384Z,7.20
2023-09-27T21:33:52.025Z,7.70
2023-09-27T21:38:48.364Z,7.22
2023-09-27T21:41:15.799Z,6.50
2023-09-27T21:43:43.534Z,7.57
2023-09-27T21:46:18.084Z,7.55
2023-09-27T21:48:48.745Z,7.80
2023-09-27T21:51:16.373Z,7.07
2023-09-27T21:53:43.863Z,8.13
2023-09-27T21:56:11.916Z,7.32
2023-09-27T21:58:39.395Z,7.30
2023-09-27T22:01:08.353Z,7.32
2023-09-27T22:03:35.870Z,7.28
2023-09-27T22:06:06.460Z,6.90
2023-09-27T22:08:34.066Z,7.28
2023-09-27T22:11:04.090Z,7.00
2023-09-27T22:13:32.757Z,6.68
2023-09-27T22:16:07.637Z,6.82
2023-09-27T22:18:35.422Z,5.82
2023-09-27T22:23:47.673Z,6.15
2023-09-27T22:26:18.280Z,6.07
2023-09-27T22:28:46.281Z,6.45
2023-09-27T22:33:57.832Z,6.22
2023-09-27T22:36:26.390Z,6.03
2023-09-27T22:38:55.234Z,5.45
2023-09-27T22:41:24.146Z,6.28
2023-09-27T22:43:53.384Z,6.13
2023-09-27T22:46:21.230Z,5.38
2023-09-27T22:48:51.352Z,5.40
2023-09-27T22:51:20.159Z,5.20
2023-09-27T22:53:47.664Z,5.53
2023-09-27T22:56:16.517Z,5.28
2023-09-27T22:58:45.437Z,5.32
2023-09-27T23:01:28.988Z,5.70
2023-09-27T23:03:59.308Z,7.88
2023-09-27T23:06:26.889Z,5.72
2023-09-27T23:09:00.866Z,5.10
2023-09-27T23:11:30.198Z,5.70
2023-09-27T23:13:59.476Z,5.00
2023-09-27T23:16:45.822Z,4.82
2023-09-27T23:19:15.132Z,5.20
2023-09-27T23:21:43.971Z,4.85
2023-09-27T23:24:25.535Z,5.38
2023-09-27T23:27:02.971Z,5.38
2023-09-27T23:29:36.112Z,5.35
2023-09-27T23:32:15.170Z,4.82
2023-09-27T23:34:42.325Z,5.00
2023-09-27T23:37:17.174Z,3.60
2023-09-27T23:39:44.345Z,3.70
2023-09-27T23:42:24.044Z,3.35
2023-09-27T23:44:52.165Z,3.38
2023-09-27T23:47:23.200Z,2.90
2023-09-27T23:49:53.349Z,2.53
2023-09-27T23:52:24.998Z,2.72
2023-09-27T23:54:55.928Z,2.90
2023-09-27T23:57:29.776Z,2.50
